Time;durP1;ratioP1;P1;durP2;ratioP2;P2;SDS_P1;SDS_P2;PMS_P1;PMS_P2;Temp;Humidity;BMP_temperature;BMP_pressure;BME280_temperature;BME280_humidity;BME280_pressure;Samples;Min_cycle;Max_cycle;Signal;HPM_P1;HPM_P2
2022/05/04 00:01:42;;;;;;;11.40;3.17;;;;;;;;;;4997568;28;91757;-65
2022/05/04 00:04:08;;;;;;;12.95;3.17;;;;;;;;;;4993683;28;93569;-65
2022/05/04 00:06:35;;;;;;;12.75;2.95;;;;;;;;;;4993829;28;92461;-65
2022/05/04 00:09:01;;;;;;;19.52;3.92;;;;;;;;;;5007830;28;94904;-65
2022/05/04 00:11:27;;;;;;;14.77;3.53;;;;;;;;;;4994003;28;93081;-65
2022/05/04 00:13:54;;;;;;;15.48;3.30;;;;;;;;;;4993887;28;92429;-65
2022/05/04 00:16:20;;;;;;;10.25;3.63;;;;;;;;;;4994101;28;93141;-65
2022/05/04 00:18:46;;;;;;;10.07;3.15;;;;;;;;;;4993358;28;93474;-65
2022/05/04 00:21:13;;;;;;;9.02;3.22;;;;;;;;;;5005803;28;92466;-65
2022/05/04 00:23:39;;;;;;;18.05;4.07;;;;;;;;;;5020467;28;93079;-65
2022/05/04 00:26:05;;;;;;;15.52;3.00;;;;;;;;;;5017870;28;91684;-66
2022/05/04 00:28:32;;;;;;;16.00;3.60;;;;;;;;;;5017365;28;93606;-65
2022/05/04 00:30:58;;;;;;;14.55;2.80;;;;;;;;;;4981177;28;92569;-65
2022/05/04 00:33:24;;;;;;;14.27;3.55;;;;;;;;;;4975806;28;94873;-65
2022/05/04 00:35:50;;;;;;;18.02;3.65;;;;;;;;;;4977317;28;95357;-65
2022/05/04 00:38:17;;;;;;;13.55;3.42;;;;;;;;;;4976913;28;93372;-65
2022/05/04 00:40:43;;;;;;;15.13;3.63;;;;;;;;;;4977493;28;92666;-65
2022/05/04 00:43:22;;;;;;;20.20;3.75;;;;;;;;;;4977299;28;93324;-65
2022/05/04 00:45:49;;;;;;;13.55;4.22;;;;;;;;;;4987506;28;93586;-66
2022/05/04 00:48:16;;;;;;;11.98;2.92;;;;;;;;;;4997238;28;94474;-65
2022/05/04 00:50:43;;;;;;;17.42;3.63;;;;;;;;;;4997464;28;91655;-65
2022/05/04 00:53:10;;;;;;;11.70;3.00;;;;;;;;;;4997000;28;92472;-65
2022/05/04 00:55:36;;;;;;;17.77;3.80;;;;;;;;;;4996978;28;94175;-66
2022/05/04 01:00:48;;;;;;;11.55;3.47;;;;;;;;;;4996913;28;92448;-65
2022/05/04 01:03:14;;;;;;;10.52;3.33;;;;;;;;;;4996832;28;93351;-65
2022/05/04 01:05:41;;;;;;;15.80;3.42;;;;;;;;;;4999484;28;94519;-65
2022/05/04 01:08:07;;;;;;;17.73;4.13;;;;;;;;;;4996666;28;93326;-65
2022/05/04 01:10:33;;;;;;;17.48;3.47;;;;;;;;;;4996536;28;93446;-65
2022/05/04 01:13:00;;;;;;;11.48;3.30;;;;;;;;;;4996428;28;92591;-65
2022/05/04 01:15:26;;;;;;;13.98;3.85;;;;;;;;;;4997246;28;94281;-65
2022/05/04 01:17:52;;;;;;;11.00;3.20;;;;;;;;;;4996362;28;93235;-65
2022/05/04 01:20:19;;;;;;;15.75;3.50;;;;;;;;;;4999831;28;92444;-65
2022/05/04 01:22:45;;;;;;;14.15;3.38;;;;;;;;;;5030856;28;94830;-65
2022/05/04 01:25:12;;;;;;;16.75;3.40;;;;;;;;;;5016348;28;94489;-65
2022/05/04 01:27:38;;;;;;;15.10;3.13;;;;;;;;;;5019768;28;92420;-65
2022/05/04 01:30:05;;;;;;;16.67;3.65;;;;;;;;;;5016343;28;93521;-65
2022/05/04 01:32:32;;;;;;;14.82;3.17;;;;;;;;;;5015357;28;92723;-65
2022/05/04 01:34:58;;;;;;;20.00;3.70;;;;;;;;;;5016623;28;94452;-65
2022/05/04 01:37:25;;;;;;;17.23;3.72;;;;;;;;;;5015668;28;93316;-65
2022/05/04 01:39:51;;;;;;;16.27;3.70;;;;;;;;;;5016701;28;91746;-65
2022/05/04 01:42:23;;;;;;;18.33;4.15;;;;;;;;;;5016373;28;92725;-65
2022/05/04 01:44:50;;;;;;;19.63;3.38;;;;;;;;;;5016220;28;94304;-66
2022/05/04 01:47:17;;;;;;;16.33;4.00;;;;;;;;;;4994927;28;94856;-65
2022/05/04 01:49:43;;;;;;;13.40;3.65;;;;;;;;;;4999009;28;95662;-65
2022/05/04 01:52:09;;;;;;;15.40;3.38;;;;;;;;;;4996437;28;92810;-65
2022/05/04 01:54:35;;;;;;;15.20;3.80;;;;;;;;;;4996049;28;94078;-65
2022/05/04 01:57:02;;;;;;;19.02;3.83;;;;;;;;;;4995735;28;93478;-65
2022/05/04 01:59:28;;;;;;;11.75;3.47;;;;;;;;;;4996299;28;92429;-66
2022/05/04 02:01:54;;;;;;;13.05;3.40;;;;;;;;;;4996159;28;93668;-65
2022/05/04 02:04:22;;;;;;;9.07;3.50;;;;;;;;;;4996552;28;93798;-65
2022/05/04 02:06:48;;;;;;;18.42;4.00;;;;;;;;;;4996053;28;92465;-66
2022/05/04 02:09:14;;;;;;;10.88;3.72;;;;;;;;;;4995628;28;92981;-65
2022/05/04 02:11:41;;;;;;;17.80;3.72;;;;;;;;;;4997080;28;96880;-65
2022/05/04 02:14:07;;;;;;;15.63;3.85;;;;;;;;;;4995672;28;94980;-66
2022/05/04 02:16:33;;;;;;;13.05;3.55;;;;;;;;;;4981933;28;93457;-65
2022/05/04 02:19:00;;;;;;;20.40;4.53;;;;;;;;;;4975979;28;92720;-65
2022/05/04 02:21:26;;;;;;;12.98;3.45;;;;;;;;;;5000157;28;93118;-65
2022/05/04 02:23:52;;;;;;;13.20;3.30;;;;;;;;;;5015166;28;94429;-66
2022/05/04 02:26:18;;;;;;;24.30;4.30;;;;;;;;;;5015544;28;92870;-65
2022/05/04 02:28:45;;;;;;;19.67;4.22;;;;;;;;;;5015897;28;93282;-65
2022/05/04 02:31:11;;;;;;;13.88;4.30;;;;;;;;;;5015504;28;94594;-65
2022/05/04 02:33:37;;;;;;;25.77;4.40;;;;;;;;;;5018613;28;92450;-65
2022/05/04 02:38:48;;;;;;;20.65;3.72;;;;;;;;;;5015585;28;92482;-65
2022/05/04 02:41:15;;;;;;;16.40;4.30;;;;;;;;;;5015118;28;93246;-65
2022/05/04 02:43:41;;;;;;;10.98;3.60;;;;;;;;;;5014933;28;93175;-65
2022/05/04 02:46:11;;;;;;;21.35;4.20;;;;;;;;;;5004582;28;92380;-65
2022/05/04 02:48:38;;;;;;;13.20;4.17;;;;;;;;;;4995305;28;93199;-65
2022/05/04 02:51:04;;;;;;;21.33;4.47;;;;;;;;;;4994997;28;94846;-65
2022/05/04 02:53:31;;;;;;;16.17;3.83;;;;;;;;;;4995585;28;91749;-65
2022/05/04 02:55:57;;;;;;;21.45;4.28;;;;;;;;;;4998150;28;92901;-65
2022/05/04 02:58:23;;;;;;;14.45;3.95;;;;;;;;;;4995687;28;92519;-65
2022/05/04 03:00:50;;;;;;;18.83;4.40;;;;;;;;;;4993674;28;94747;-65
2022/05/04 03:03:16;;;;;;;15.02;3.63;;;;;;;;;;4994954;28;93954;-65
2022/05/04 03:05:42;;;;;;;17.77;4.65;;;;;;;;;;4994757;28;92501;-65
2022/05/04 03:08:09;;;;;;;16.02;4.55;;;;;;;;;;4995502;28;92438;-66
2022/05/04 03:11:54;;;;;;;14.38;4.40;;;;;;;;;;4994808;28;93284;-66
2022/05/04 03:13:22;;;;;;;13.30;4.38;;;;;;;;;;4994514;28;92537;-66
2022/05/04 03:15:48;;;;;;;13.95;4.57;;;;;;;;;;4997333;28;93444;-66
2022/05/04 03:18:14;;;;;;;18.15;4.38;;;;;;;;;;4995245;28;91713;-65
2022/05/04 03:20:41;;;;;;;14.68;4.95;;;;;;;;;;5001160;28;93542;-65
2022/05/04 03:23:07;;;;;;;21.08;6.30;;;;;;;;;;5030085;28;93629;-65
2022/05/04 03:25:33;;;;;;;16.17;4.93;;;;;;;;;;5013214;28;94851;-65
2022/05/04 03:28:00;;;;;;;12.40;3.95;;;;;;;;;;5014644;28;95904;-66
2022/05/04 03:30:26;;;;;;;17.92;4.60;;;;;;;;;;5013873;28;93500;-65
2022/05/04 03:32:52;;;;;;;12.68;4.68;;;;;;;;;;5014973;28;92427;-65
2022/05/04 03:35:18;;;;;;;16.55;4.43;;;;;;;;;;5014629;28;93148;-65
2022/05/04 03:37:45;;;;;;;21.73;4.55;;;;;;;;;;5017234;28;93307;-66
2022/05/04 03:40:13;;;;;;;16.25;4.90;;;;;;;;;;5014815;28;94059;-65
2022/05/04 03:42:39;;;;;;;29.48;4.97;;;;;;;;;;5015012;28;93743;-65
2022/05/04 03:45:06;;;;;;;12.57;3.75;;;;;;;;;;5012721;28;92453;-65
2022/05/04 03:47:32;;;;;;;14.13;4.30;;;;;;;;;;4994335;28;93260;-65
2022/05/04 03:49:58;;;;;;;19.38;4.03;;;;;;;;;;4992595;28;95888;-65
2022/05/04 03:52:24;;;;;;;17.42;4.38;;;;;;;;;;4992741;28;92417;-65
2022/05/04 03:54:51;;;;;;;18.55;4.45;;;;;;;;;;4994080;28;93271;-65
2022/05/04 03:57:17;;;;;;;17.55;4.72;;;;;;;;;;4992943;28;93140;-65
2022/05/04 03:59:44;;;;;;;11.77;3.92;;;;;;;;;;4997249;28;92444;-65
2022/05/04 04:02:10;;;;;;;13.07;4.25;;;;;;;;;;4994044;28;93087;-65
2022/05/04 04:04:36;;;;;;;16.75;4.22;;;;;;;;;;4994242;28;92423;-65
2022/05/04 04:07:03;;;;;;;19.95;4.47;;;;;;;;;;4994988;28;92745;-65
2022/05/04 04:09:29;;;;;;;18.27;4.47;;;;;;;;;;4994144;28;93333;-65
2022/05/04 04:11:55;;;;;;;9.93;3.85;;;;;;;;;;4993832;28;92480;-65
2022/05/04 04:14:22;;;;;;;17.08;4.53;;;;;;;;;;4992043;28;95099;-66
2022/05/04 04:16:48;;;;;;;17.83;4.65;;;;;;;;;;4993688;28;93415;-65
2022/05/04 04:19:14;;;;;;;15.52;4.63;;;;;;;;;;4993126;28;92456;-65
2022/05/04 04:21:53;;;;;;;25.52;4.15;;;;;;;;;;5011005;28;93038;-65
2022/05/04 04:24:20;;;;;;;14.50;4.55;;;;;;;;;;5014203;28;92495;-65
2022/05/04 04:26:46;;;;;;;22.33;5.07;;;;;;;;;;5013498;28;93204;-65
2022/05/04 04:29:12;;;;;;;14.77;4.15;;;;;;;;;;5013636;28;94304;-65
2022/05/04 04:31:39;;;;;;;12.00;3.95;;;;;;;;;;5014322;28;91707;-65
2022/05/04 04:34:07;;;;;;;19.30;4.40;;;;;;;;;;5013772;28;93350;-67
2022/05/04 04:36:38;;;;;;;12.52;4.63;;;;;;;;;;5012830;28;93220;-65
2022/05/04 04:39:04;;;;;;;16.33;4.40;;;;;;;;;;5012000;28;94842;-65
2022/05/04 04:41:31;;;;;;;19.83;4.88;;;;;;;;;;5013374;28;95314;-65
2022/05/04 04:43:57;;;;;;;18.85;4.60;;;;;;;;;;5016709;28;95476;-65
2022/05/04 04:46:23;;;;;;;18.88;5.05;;;;;;;;;;5001448;28;93503;-65
2022/05/04 04:48:50;;;;;;;13.40;4.65;;;;;;;;;;4993392;28;93411;-65
2022/05/04 04:51:17;;;;;;;15.10;4.32;;;;;;;;;;4993628;28;92500;-65
2022/05/04 04:53:43;;;;;;;19.40;5.03;;;;;;;;;;4993735;28;93283;-66
2022/05/04 04:56:09;;;;;;;19.00;4.18;;;;;;;;;;4994291;28;93640;-65
2022/05/04 04:58:35;;;;;;;17.90;4.50;;;;;;;;;;4993436;28;92453;-65
2022/05/04 05:01:02;;;;;;;13.10;4.60;;;;;;;;;;4993811;28;94250;-65
2022/05/04 05:03:29;;;;;;;15.50;4.30;;;;;;;;;;4991683;28;95699;-65
2022/05/04 05:05:55;;;;;;;14.55;4.05;;;;;;;;;;4996397;28;92382;-65
2022/05/04 05:08:21;;;;;;;10.57;4.35;;;;;;;;;;4994331;28;93578;-65
2022/05/04 05:10:48;;;;;;;17.70;4.30;;;;;;;;;;4997271;28;92443;-65
2022/05/04 05:13:14;;;;;;;19.60;4.85;;;;;;;;;;4996631;28;93220;-66
2022/05/04 05:18:25;;;;;;;20.95;4.75;;;;;;;;;;4996649;28;92436;-65
2022/05/04 05:20:52;;;;;;;26.35;4.82;;;;;;;;;;5004195;28;93059;-65
2022/05/04 05:23:22;;;;;;;22.45;4.78;;;;;;;;;;5016177;28;93440;-65
2022/05/04 05:25:49;;;;;;;24.15;4.88;;;;;;;;;;5019645;28;92465;-65
2022/05/04 05:28:15;;;;;;;14.35;4.60;;;;;;;;;;5014402;28;95912;-65
2022/05/04 05:30:42;;;;;;;20.35;4.65;;;;;;;;;;5016632;28;92504;-65
2022/05/04 05:33:08;;;;;;;30.02;5.45;;;;;;;;;;5016538;28;94255;-65
2022/05/04 05:35:35;;;;;;;15.27;4.68;;;;;;;;;;5016279;28;94014;-65
2022/05/04 05:38:01;;;;;;;27.05;5.45;;;;;;;;;;5016187;28;92519;-65
2022/05/04 05:40:27;;;;;;;23.92;5.22;;;;;;;;;;5016366;28;93223;-65
2022/05/04 05:42:54;;;;;;;18.55;4.72;;;;;;;;;;5016047;28;93793;-65
2022/05/04 05:45:20;;;;;;;16.80;4.30;;;;;;;;;;5012908;28;91767;-65
2022/05/04 05:47:46;;;;;;;17.60;5.63;;;;;;;;;;4999093;28;92558;-65
2022/05/04 05:50:13;;;;;;;29.58;5.35;;;;;;;;;;4996320;28;92445;-65
2022/05/04 05:52:39;;;;;;;14.15;4.68;;;;;;;;;;4994352;28;94831;-65
2022/05/04 05:55:06;;;;;;;29.38;5.22;;;;;;;;;;4995813;28;93451;-66
2022/05/04 05:57:33;;;;;;;16.73;4.18;;;;;;;;;;4995842;28;92379;-64
2022/05/04 06:00:00;;;;;;;22.25;4.43;;;;;;;;;;4996038;28;92930;-66
2022/05/04 06:02:27;;;;;;;16.75;5.35;;;;;;;;;;4995562;28;93792;-68
2022/05/04 06:04:54;;;;;;;20.85;4.70;;;;;;;;;;4996044;28;92421;-65
2022/05/04 06:07:20;;;;;;;24.45;4.70;;;;;;;;;;4995940;28;93915;-65
2022/05/04 06:09:46;;;;;;;16.58;3.88;;;;;;;;;;4999281;28;93839;-65
2022/05/04 06:12:13;;;;;;;21.50;4.00;;;;;;;;;;4995716;28;92424;-65
2022/05/04 06:14:40;;;;;;;24.08;4.30;;;;;;;;;;4995350;28;93430;-65
2022/05/04 06:17:10;;;;;;;20.65;4.22;;;;;;;;;;4994143;28;94784;-65
2022/05/04 06:19:36;;;;;;;28.75;4.45;;;;;;;;;;4995446;28;96614;-65
2022/05/04 06:22:03;;;;;;;21.00;4.30;;;;;;;;;;5013040;28;94498;-64
2022/05/04 06:24:29;;;;;;;29.67;4.97;;;;;;;;;;5015669;28;92478;-64
2022/05/04 06:26:55;;;;;;;17.40;4.85;;;;;;;;;;5015749;28;93642;-65
2022/05/04 06:34:06;;;;;;;23.55;4.60;;;;;;;;;;5015187;28;93507;-65
2022/05/04 06:34:53;;;;;;;15.25;3.72;;;;;;;;;;5015973;28;92725;-65
2022/05/04 06:37:19;;;;;;;14.93;3.80;;;;;;;;;;5015036;28;92467;-65
2022/05/04 06:39:46;;;;;;;20.42;3.60;;;;;;;;;;5015436;28;93227;-65
2022/05/04 06:42:13;;;;;;;19.65;3.35;;;;;;;;;;5013592;28;96799;-65
2022/05/04 06:44:39;;;;;;;16.33;4.32;;;;;;;;;;5015371;28;92436;-65
2022/05/04 06:47:05;;;;;;;15.65;4.30;;;;;;;;;;4997158;28;94429;-65
2022/05/04 06:49:32;;;;;;;15.23;3.60;;;;;;;;;;4993525;28;93769;-66
2022/05/04 06:51:58;;;;;;;10.48;3.40;;;;;;;;;;4995491;28;93009;-65
2022/05/04 06:54:24;;;;;;;16.17;3.60;;;;;;;;;;4998000;28;92571;-65
2022/05/04 06:56:51;;;;;;;28.10;5.05;;;;;;;;;;4994969;28;92451;-65
2022/05/04 06:59:17;;;;;;;17.50;3.28;;;;;;;;;;4995578;28;93333;-66
2022/05/04 07:01:44;;;;;;;19.15;3.47;;;;;;;;;;4995094;28;93678;-65
2022/05/04 07:04:10;;;;;;;13.07;3.70;;;;;;;;;;4995103;28;92549;-65
2022/05/04 07:06:36;;;;;;;12.13;3.28;;;;;;;;;;4993473;28;94851;-65
2022/05/04 07:09:03;;;;;;;16.80;2.92;;;;;;;;;;4995200;28;94481;-65
2022/05/04 07:11:30;;;;;;;11.15;3.38;;;;;;;;;;4995272;28;92344;-65
2022/05/04 07:13:56;;;;;;;18.42;3.65;;;;;;;;;;4997742;28;92986;-65
2022/05/04 07:16:22;;;;;;;11.05;3.45;;;;;;;;;;4995047;28;92450;-65
2022/05/04 07:18:49;;;;;;;16.85;3.03;;;;;;;;;;4994873;28;93564;-65
2022/05/04 07:21:15;;;;;;;18.45;3.67;;;;;;;;;;5005378;28;93221;-65
2022/05/04 07:23:41;;;;;;;16.17;3.65;;;;;;;;;;5015176;28;91760;-65
2022/05/04 07:26:07;;;;;;;14.38;4.13;;;;;;;;;;5015015;28;92374;-65
2022/05/04 07:28:34;;;;;;;11.57;3.38;;;;;;;;;;5014746;28;94277;-65
2022/05/04 07:31:00;;;;;;;20.27;4.13;;;;;;;;;;5012161;28;95072;-65
2022/05/04 07:33:26;;;;;;;11.23;3.63;;;;;;;;;;5014371;28;95527;-65
2022/05/04 07:35:52;;;;;;;16.55;3.75;;;;;;;;;;5017577;28;93395;-65
2022/05/04 07:38:19;;;;;;;12.73;3.38;;;;;;;;;;5014045;28;92995;-65
2022/05/04 07:43:30;;;;;;;11.95;3.40;;;;;;;;;;5014431;28;92497;-65
2022/05/04 07:45:56;;;;;;;15.00;3.83;;;;;;;;;;5020906;27;93003;-65
2022/05/04 07:48:23;;;;;;;9.70;3.30;;;;;;;;;;4994574;28;92906;-65
2022/05/04 07:50:49;;;;;;;14.90;3.40;;;;;;;;;;4994409;28;92776;-66
2022/05/04 07:53:15;;;;;;;11.95;3.20;;;;;;;;;;4994319;28;93848;-65
2022/05/04 07:55:42;;;;;;;17.88;3.63;;;;;;;;;;4991056;28;95506;-65
2022/05/04 07:58:08;;;;;;;13.65;4.38;;;;;;;;;;4997816;28;92517;-65
2022/05/04 08:06:04;;;;;;;18.13;3.88;;;;;;;;;;4994461;28;94214;-65
2022/05/04 08:08:30;;;;;;;19.40;4.68;;;;;;;;;;4993937;28;93639;-65
2022/05/04 08:11:00;;;;;;;17.10;4.10;;;;;;;;;;4994258;28;92486;-65
2022/05/04 08:13:26;;;;;;;18.23;4.20;;;;;;;;;;4994442;28;93146;-65
2022/05/04 08:15:53;;;;;;;9.00;4.20;;;;;;;;;;4993763;28;93427;-65
2022/05/04 08:18:20;;;;;;;21.55;4.68;;;;;;;;;;4994278;28;92685;-65
2022/05/04 08:20:47;;;;;;;9.05;4.05;;;;;;;;;;5002355;28;95221;-65
2022/05/04 08:23:13;;;;;;;11.50;4.25;;;;;;;;;;5014360;28;92424;-65
2022/05/04 08:25:39;;;;;;;19.67;4.57;;;;;;;;;;5013820;28;92727;-65
2022/05/04 08:28:05;;;;;;;13.10;5.13;;;;;;;;;;5014006;28;94548;-65
2022/05/04 08:30:32;;;;;;;13.40;4.80;;;;;;;;;;5013257;28;92594;-65
2022/05/04 08:32:58;;;;;;;14.05;5.75;;;;;;;;;;5013814;28;92944;-65
2022/05/04 08:35:24;;;;;;;13.15;4.75;;;;;;;;;;5013452;28;93490;-65
2022/05/04 08:37:51;;;;;;;16.13;4.55;;;;;;;;;;5014042;28;91710;-65
2022/05/04 08:40:17;;;;;;;18.88;4.80;;;;;;;;;;5013465;28;92492;-65
2022/05/04 08:42:44;;;;;;;11.52;4.38;;;;;;;;;;5018469;28;93429;-65
2022/05/04 08:45:11;;;;;;;13.82;4.57;;;;;;;;;;5011324;28;95156;-65
2022/05/04 08:47:39;;;;;;;15.73;5.18;;;;;;;;;;4996694;28;93861;-65
2022/05/04 08:50:14;;;;;;;16.90;4.47;;;;;;;;;;4997184;28;92595;-66
2022/05/04 08:52:42;;;;;;;18.33;4.75;;;;;;;;;;4997073;28;93340;-65
2022/05/04 08:55:10;;;;;;;15.32;5.13;;;;;;;;;;4996884;28;94458;-65
2022/05/04 08:57:39;;;;;;;10.82;5.18;;;;;;;;;;4996432;28;92460;-65
2022/05/04 09:00:06;;;;;;;17.35;5.13;;;;;;;;;;4997128;28;93301;-65
2022/05/04 09:02:32;;;;;;;13.30;4.80;;;;;;;;;;4997206;28;92473;-66
2022/05/04 09:05:11;;;;;;;21.83;4.97;;;;;;;;;;5000467;28;92854;-65
2022/05/04 09:07:38;;;;;;;16.85;5.10;;;;;;;;;;4996758;28;93380;-65
2022/05/04 09:10:06;;;;;;;9.73;4.82;;;;;;;;;;4994960;28;95384;-65
2022/05/04 09:12:35;;;;;;;28.05;6.13;;;;;;;;;;4996988;28;96541;-65
2022/05/04 09:15:01;;;;;;;19.98;6.00;;;;;;;;;;4994933;28;93421;-65
2022/05/04 09:17:28;;;;;;;17.02;5.50;;;;;;;;;;4997194;28;92578;-66
2022/05/04 09:22:42;;;;;;;16.83;5.65;;;;;;;;;;4965250;28;94551;-66
2022/05/04 09:25:18;;;;;;;16.23;5.55;;;;;;;;;;4979834;28;92380;-65
2022/05/04 09:27:45;;;;;;;13.30;5.68;;;;;;;;;;4975832;28;92457;-66
2022/05/04 09:30:12;;;;;;;16.90;6.07;;;;;;;;;;4976571;28;92657;-65
2022/05/04 09:32:40;;;;;;;9.52;5.15;;;;;;;;;;4975783;28;93982;-66
2022/05/04 09:35:10;;;;;;;10.70;5.30;;;;;;;;;;4974510;28;94904;-65
2022/05/04 09:45:52;;;;;;;20.85;5.97;;;;;;;;;;4983810;28;92574;-66
2022/05/04 09:48:26;;;;;;;21.17;5.70;;;;;;;;;;4999249;28;93178;-65
2022/05/04 09:50:56;;;;;;;13.52;4.85;;;;;;;;;;4996274;28;92474;-65
2022/05/04 09:53:26;;;;;;;17.05;5.63;;;;;;;;;;4996248;28;93637;-65
2022/05/04 09:55:54;;;;;;;20.75;5.68;;;;;;;;;;4995764;28;93558;-65
2022/05/04 09:58:23;;;;;;;16.33;5.85;;;;;;;;;;4996373;28;92450;-65
2022/05/04 10:00:51;;;;;;;15.90;4.80;;;;;;;;;;4994705;28;94819;-65
2022/05/04 10:03:18;;;;;;;15.98;6.20;;;;;;;;;;4995715;28;93356;-65
2022/05/04 10:05:45;;;;;;;20.65;5.78;;;;;;;;;;4995881;28;92684;-65
2022/05/04 10:08:12;;;;;;;12.27;5.28;;;;;;;;;;4995742;28;93937;-65
2022/05/04 10:10:39;;;;;;;14.70;5.78;;;;;;;;;;4998758;28;94329;-65
2022/05/04 10:13:07;;;;;;;12.10;5.15;;;;;;;;;;4995913;28;93084;-66
2022/05/04 10:15:34;;;;;;;11.57;6.07;;;;;;;;;;4995078;28;93638;-66
2022/05/04 10:18:07;;;;;;;18.00;5.40;;;;;;;;;;4996176;28;91758;-65
2022/05/04 10:20:45;;;;;;;13.02;5.55;;;;;;;;;;5016166;28;92539;-65
2022/05/04 10:23:15;;;;;;;13.65;5.80;;;;;;;;;;5015346;28;93329;-65
2022/05/04 10:25:43;;;;;;;15.50;5.63;;;;;;;;;;5013679;28;94838;-65
2022/05/04 10:28:11;;;;;;;17.50;5.45;;;;;;;;;;5015516;28;95483;-65
2022/05/04 10:30:56;;;;;;;16.00;6.55;;;;;;;;;;5013672;28;93164;-65
2022/05/04 10:33:25;;;;;;;23.88;6.47;;;;;;;;;;5018868;28;92753;-65
2022/05/04 10:35:52;;;;;;;16.58;6.25;;;;;;;;;;5030722;28;94458;-65
2022/05/04 10:38:19;;;;;;;17.48;6.10;;;;;;;;;;5015176;28;92493;-65
2022/05/04 10:40:56;;;;;;;20.88;6.15;;;;;;;;;;5015716;28;94232;-66
2022/05/04 10:43:36;;;;;;;21.05;6.18;;;;;;;;;;5015929;28;92947;-66
2022/05/04 10:46:03;;;;;;;11.57;5.90;;;;;;;;;;5005059;28;92540;-65
2022/05/04 10:48:30;;;;;;;12.85;6.82;;;;;;;;;;4995452;28;93204;-65
2022/05/04 10:51:03;;;;;;;12.38;6.43;;;;;;;;;;4993428;28;95850;-65
2022/05/04 10:53:32;;;;;;;16.17;6.53;;;;;;;;;;4995453;28;92418;-65
2022/05/04 10:56:02;;;;;;;22.27;6.90;;;;;;;;;;4998174;28;94067;-65
2022/05/04 10:58:32;;;;;;;12.57;6.88;;;;;;;;;;4995294;28;92514;-66
2022/05/04 11:01:05;;;;;;;12.18;6.10;;;;;;;;;;4994977;28;93691;-66
2022/05/04 11:03:33;;;;;;;16.55;6.25;;;;;;;;;;4994805;28;93364;-66
2022/05/04 11:06:02;;;;;;;15.70;6.40;;;;;;;;;;4993711;28;92520;-65
2022/05/04 11:08:33;;;;;;;20.50;7.20;;;;;;;;;;5011181;28;93680;-65
2022/05/04 11:11:00;;;;;;;17.20;6.40;;;;;;;;;;4994325;28;93217;-66
2022/05/04 11:13:26;;;;;;;17.95;7.20;;;;;;;;;;4995107;28;92486;-66
2022/05/04 11:15:52;;;;;;;17.80;6.63;;;;;;;;;;4993223;28;94867;-66
2022/05/04 11:18:19;;;;;;;17.55;5.97;;;;;;;;;;4998193;28;94906;-65
2022/05/04 11:20:46;;;;;;;16.17;6.18;;;;;;;;;;5001371;28;92844;-65
2022/05/04 11:23:12;;;;;;;25.30;6.32;;;;;;;;;;5014585;28;93514;-65
2022/05/04 11:25:39;;;;;;;16.10;6.75;;;;;;;;;;5014991;28;92443;-65
2022/05/04 11:28:07;;;;;;;19.88;7.15;;;;;;;;;;5014694;28;93193;-65
2022/05/04 11:30:33;;;;;;;12.90;6.78;;;;;;;;;;5014623;28;94245;-65
2022/05/04 11:33:01;;;;;;;18.83;7.28;;;;;;;;;;5015070;28;91905;-66
2022/05/04 11:35:28;;;;;;;17.73;6.50;;;;;;;;;;5014501;28;92411;-65
2022/05/04 11:37:54;;;;;;;15.07;6.40;;;;;;;;;;5016421;28;93335;-66
2022/05/04 11:40:20;;;;;;;18.08;6.38;;;;;;;;;;5012967;28;94749;-65
2022/05/04 11:42:48;;;;;;;15.80;6.50;;;;;;;;;;5014403;28;94445;-65
2022/05/04 11:45:16;;;;;;;17.85;6.82;;;;;;;;;;5011201;28;92522;-65
2022/05/04 11:47:43;;;;;;;18.85;6.43;;;;;;;;;;4994247;28;93321;-65
2022/05/04 11:50:11;;;;;;;16.90;6.93;;;;;;;;;;4994135;28;93377;-66
2022/05/04 11:52:37;;;;;;;21.77;6.90;;;;;;;;;;4993991;28;92501;-65
2022/05/04 11:55:03;;;;;;;17.70;6.85;;;;;;;;;;4994512;28;94506;-65
2022/05/04 11:57:31;;;;;;;18.33;6.80;;;;;;;;;;4994717;28;92785;-65
2022/05/04 11:59:57;;;;;;;20.15;7.45;;;;;;;;;;4997251;28;92636;-65
2022/05/04 12:02:24;;;;;;;22.67;7.88;;;;;;;;;;4992609;28;93489;-65
2022/05/04 12:04:50;;;;;;;15.02;6.60;;;;;;;;;;4992540;28;94864;-65
2022/05/04 12:07:17;;;;;;;18.73;7.32;;;;;;;;;;4993859;28;96972;-65
2022/05/04 12:09:43;;;;;;;16.15;7.10;;;;;;;;;;4994054;28;93244;-65
2022/05/04 12:12:10;;;;;;;19.33;6.35;;;;;;;;;;4994163;28;92482;-65
2022/05/04 12:14:36;;;;;;;18.58;7.68;;;;;;;;;;4992565;28;93028;-65
2022/05/04 12:17:02;;;;;;;14.00;6.65;;;;;;;;;;4994559;28;93465;-65
2022/05/04 12:19:29;;;;;;;16.70;7.10;;;;;;;;;;4997720;28;92569;-65
2022/05/04 12:21:56;;;;;;;15.93;6.78;;;;;;;;;;5017320;28;93321;-65
2022/05/04 12:24:23;;;;;;;16.58;7.75;;;;;;;;;;5017494;28;92471;-65
2022/05/04 12:26:49;;;;;;;17.73;7.32;;;;;;;;;;5017695;28;94259;-65
2022/05/04 12:34:47;;;;;;;23.17;7.43;;;;;;;;;;4977749;28;94252;-65
2022/05/04 12:37:14;;;;;;;17.35;7.10;;;;;;;;;;4977052;28;93964;-65
2022/05/04 12:39:42;;;;;;;24.05;7.00;;;;;;;;;;4977678;28;92436;-65
2022/05/04 12:42:09;;;;;;;25.95;7.43;;;;;;;;;;4977541;28;93065;-65
2022/05/04 12:44:36;;;;;;;21.35;6.82;;;;;;;;;;4980025;28;93264;-65
2022/05/04 12:47:03;;;;;;;19.23;6.88;;;;;;;;;;4995301;28;93132;-65
2022/05/04 12:49:29;;;;;;;14.10;6.13;;;;;;;;;;4997138;28;93333;-65
2022/05/04 12:51:56;;;;;;;14.00;6.78;;;;;;;;;;4995658;28;92475;-65
2022/05/04 12:54:23;;;;;;;17.30;7.10;;;;;;;;;;4995574;28;94887;-65
2022/05/04 12:56:50;;;;;;;18.20;7.03;;;;;;;;;;4996599;28;93237;-65
2022/05/04 12:59:16;;;;;;;21.10;7.82;;;;;;;;;;4997057;28;92407;-65
2022/05/04 13:01:43;;;;;;;12.98;7.57;;;;;;;;;;4996789;28;92937;-65
2022/05/04 13:04:12;;;;;;;26.88;7.50;;;;;;;;;;4996767;28;93511;-65
2022/05/04 13:06:38;;;;;;;18.35;6.63;;;;;;;;;;5000013;28;92600;-65
2022/05/04 13:09:05;;;;;;;18.92;7.85;;;;;;;;;;4996695;28;93644;-65
2022/05/04 13:11:33;;;;;;;14.32;6.82;;;;;;;;;;4997292;28;91693;-65
2022/05/04 13:13:59;;;;;;;17.58;7.75;;;;;;;;;;4996878;28;92465;-65
2022/05/04 13:16:29;;;;;;;18.58;8.07;;;;;;;;;;4996700;28;94459;-65
2022/05/04 13:18:56;;;;;;;14.55;7.35;;;;;;;;;;4995127;28;94799;-65
2022/05/04 13:21:23;;;;;;;16.23;8.00;;;;;;;;;;5023820;27;95369;-65
2022/05/04 13:23:49;;;;;;;17.70;7.22;;;;;;;;;;5016372;28;93494;-65
2022/05/04 13:26:17;;;;;;;18.27;7.63;;;;;;;;;;5016360;28;92430;-65
2022/05/04 13:28:46;;;;;;;22.58;7.15;;;;;;;;;;5018066;28;93465;-65
2022/05/04 13:31:13;;;;;;;19.88;8.38;;;;;;;;;;5016570;28;92435;-66
2022/05/04 13:33:41;;;;;;;18.85;7.90;;;;;;;;;;5015534;28;93485;-65
2022/05/04 13:36:08;;;;;;;22.45;7.55;;;;;;;;;;5016823;28;93731;-65
2022/05/04 13:38:34;;;;;;;13.88;6.50;;;;;;;;;;5015955;28;92501;-66
2022/05/04 13:41:00;;;;;;;16.15;6.20;;;;;;;;;;5016347;28;94206;-65
2022/05/04 13:43:26;;;;;;;17.92;5.88;;;;;;;;;;5013977;28;95695;-65
2022/05/04 13:45:53;;;;;;;24.52;6.38;;;;;;;;;;5007938;28;92441;-65
2022/05/04 13:48:19;;;;;;;17.00;5.78;;;;;;;;;;4999117;28;93187;-65
2022/05/04 13:53:30;;;;;;;22.35;5.82;;;;;;;;;;4995934;28;92467;-65
2022/05/04 13:55:57;;;;;;;17.38;6.18;;;;;;;;;;4995922;28;94478;-65
2022/05/04 13:58:23;;;;;;;12.63;5.88;;;;;;;;;;4995997;28;92587;-65
2022/05/04 14:00:50;;;;;;;18.70;5.55;;;;;;;;;;4996427;28;93153;-65
2022/05/04 14:03:17;;;;;;;9.90;5.18;;;;;;;;;;4995755;28;93137;-65
2022/05/04 14:05:44;;;;;;;12.73;5.25;;;;;;;;;;4996023;28;92809;-65
2022/05/04 14:08:11;;;;;;;16.98;4.63;;;;;;;;;;4994422;28;94946;-65
2022/05/04 14:10:43;;;;;;;10.75;4.78;;;;;;;;;;4996510;28;93422;-66
2022/05/04 14:13:10;;;;;;;13.05;4.88;;;;;;;;;;4995719;28;93549;-65
2022/05/04 14:15:36;;;;;;;13.55;5.35;;;;;;;;;;4995431;28;93594;-65
2022/05/04 14:18:05;;;;;;;15.80;4.45;;;;;;;;;;4995395;28;92963;-66
2022/05/04 14:20:32;;;;;;;31.13;4.80;;;;;;;;;;4995632;28;93566;-65
2022/05/04 14:22:58;;;;;;;11.05;4.93;;;;;;;;;;4995429;28;92917;-66
2022/05/04 14:25:26;;;;;;;14.27;5.32;;;;;;;;;;4996503;28;91714;-65
2022/05/04 14:27:53;;;;;;;16.13;5.10;;;;;;;;;;4995343;28;92427;-65
2022/05/04 14:30:23;;;;;;;15.40;4.30;;;;;;;;;;4995607;28;93383;-66
2022/05/04 14:32:49;;;;;;;14.93;4.78;;;;;;;;;;4997094;28;95002;-66
2022/05/04 14:35:15;;;;;;;13.82;4.40;;;;;;;;;;4994737;28;93484;-65
2022/05/04 14:37:42;;;;;;;11.38;4.82;;;;;;;;;;4994807;28;92529;-65
2022/05/04 14:40:08;;;;;;;10.45;4.47;;;;;;;;;;4994812;28;92376;-65
2022/05/04 14:42:34;;;;;;;8.00;4.28;;;;;;;;;;4995313;28;94996;-65
2022/05/04 14:45:02;;;;;;;15.68;4.43;;;;;;;;;;4995274;28;92834;-66
2022/05/04 14:47:28;;;;;;;11.18;4.15;;;;;;;;;;4993816;28;93008;-66
2022/05/04 14:49:54;;;;;;;11.35;3.80;;;;;;;;;;4995352;28;92913;-65
2022/05/04 14:52:21;;;;;;;17.30;4.65;;;;;;;;;;4995243;28;92448;-65
2022/05/04 14:54:47;;;;;;;13.18;4.53;;;;;;;;;;4997831;28;92942;-65
2022/05/04 14:57:15;;;;;;;13.00;4.97;;;;;;;;;;4993439;28;95205;-65
2022/05/04 14:59:41;;;;;;;14.95;5.07;;;;;;;;;;4995303;28;96587;-65
2022/05/04 15:02:07;;;;;;;23.63;5.18;;;;;;;;;;4994663;28;93800;-65
2022/05/04 15:07:19;;;;;;;14.88;5.18;;;;;;;;;;4994916;28;93151;-65
2022/05/04 15:09:45;;;;;;;13.32;4.78;;;;;;;;;;4994685;28;93352;-66
2022/05/04 15:12:12;;;;;;;15.27;4.93;;;;;;;;;;4994724;28;92385;-66